sensor_id;sensor_type;location;lat;lon;timestamp;P1;durP1;ratioP1;P2;durP2;ratioP2
29576;SDS011;16509;53.862;10.672;2022-10-31T00:00:24;21.85;;;10.90;;
29576;SDS011;16509;53.862;10.672;2022-10-31T00:02:50;21.45;;;11.65;;
29576;SDS011;16509;53.862;10.672;2022-10-31T00:05:15;15.90;;;10.55;;
29576;SDS011;16509;53.862;10.672;2022-10-31T00:07:41;19.05;;;10.63;;
29576;SDS011;16509;53.862;10.672;2022-10-31T00:10:07;17.08;;;11.07;;
29576;SDS011;16509;53.862;10.672;2022-10-31T00:12:33;21.38;;;11.20;;
29576;SDS011;16509;53.862;10.672;2022-10-31T00:14:58;20.63;;;10.90;;
29576;SDS011;16509;53.862;10.672;2022-10-31T00:17:24;20.27;;;11.65;;
29576;SDS011;16509;53.862;10.672;2022-10-31T00:19:49;18.63;;;10.55;;
29576;SDS011;16509;53.862;10.672;2022-10-31T00:22:15;17.33;;;11.15;;
29576;SDS011;16509;53.862;10.672;2022-10-31T00:24:40;18.92;;;10.93;;
29576;SDS011;16509;53.862;10.672;2022-10-31T00:27:06;15.15;;;10.18;;
29576;SDS011;16509;53.862;10.672;2022-10-31T00:29:31;17.55;;;11.27;;
29576;SDS011;16509;53.862;10.672;2022-10-31T00:31:58;18.20;;;11.35;;
29576;SDS011;16509;53.862;10.672;2022-10-31T00:34:23;16.73;;;10.82;;
29576;SDS011;16509;53.862;10.672;2022-10-31T00:36:49;25.25;;;10.90;;
29576;SDS011;16509;53.862;10.672;2022-10-31T00:39:14;17.65;;;10.65;;
29576;SDS011;16509;53.862;10.672;2022-10-31T00:41:40;18.55;;;10.98;;
29576;SDS011;16509;53.862;10.672;2022-10-31T00:44:05;16.27;;;10.70;;
29576;SDS011;16509;53.862;10.672;2022-10-31T00:46:31;17.20;;;10.82;;
29576;SDS011;16509;53.862;10.672;2022-10-31T00:48:56;19.40;;;10.25;;
29576;SDS011;16509;53.862;10.672;2022-10-31T00:51:22;15.88;;;10.30;;
29576;SDS011;16509;53.862;10.672;2022-10-31T00:53:47;20.48;;;11.55;;
29576;SDS011;16509;53.862;10.672;2022-10-31T00:56:13;20.77;;;10.85;;
29576;SDS011;16509;53.862;10.672;2022-10-31T00:58:38;19.55;;;10.55;;
29576;SDS011;16509;53.862;10.672;2022-10-31T01:01:04;24.83;;;10.95;;
29576;SDS011;16509;53.862;10.672;2022-10-31T01:03:31;15.77;;;10.18;;
29576;SDS011;16509;53.862;10.672;2022-10-31T01:08:30;16.95;;;9.43;;
29576;SDS011;16509;53.862;10.672;2022-10-31T01:13:28;18.75;;;9.85;;
29576;SDS011;16509;53.862;10.672;2022-10-31T01:15:57;18.92;;;10.43;;
29576;SDS011;16509;53.862;10.672;2022-10-31T01:18:23;21.70;;;9.75;;
29576;SDS011;16509;53.862;10.672;2022-10-31T01:21:03;18.50;;;9.98;;
29576;SDS011;16509;53.862;10.672;2022-10-31T01:23:33;16.42;;;9.40;;
29576;SDS011;16509;53.862;10.672;2022-10-31T01:26:04;20.10;;;9.52;;
29576;SDS011;16509;53.862;10.672;2022-10-31T01:28:36;19.98;;;10.70;;
29576;SDS011;16509;53.862;10.672;2022-10-31T01:31:08;18.80;;;9.43;;
29576;SDS011;16509;53.862;10.672;2022-10-31T01:33:34;25.58;;;10.90;;
29576;SDS011;16509;53.862;10.672;2022-10-31T01:36:00;16.83;;;9.88;;
29576;SDS011;16509;53.862;10.672;2022-10-31T01:38:27;15.75;;;8.60;;
29576;SDS011;16509;53.862;10.672;2022-10-31T01:40:52;18.83;;;10.27;;
29576;SDS011;16509;53.862;10.672;2022-10-31T01:43:18;17.58;;;10.23;;
29576;SDS011;16509;53.862;10.672;2022-10-31T01:45:48;16.17;;;9.00;;
29576;SDS011;16509;53.862;10.672;2022-10-31T01:48:18;18.73;;;9.82;;
29576;SDS011;16509;53.862;10.672;2022-10-31T01:50:48;18.92;;;9.43;;
29576;SDS011;16509;53.862;10.672;2022-10-31T01:53:18;18.52;;;9.18;;
29576;SDS011;16509;53.862;10.672;2022-10-31T01:55:44;17.25;;;9.15;;
29576;SDS011;16509;53.862;10.672;2022-10-31T01:58:14;23.00;;;9.60;;
29576;SDS011;16509;53.862;10.672;2022-10-31T02:00:45;18.95;;;9.27;;
29576;SDS011;16509;53.862;10.672;2022-10-31T02:03:13;15.75;;;9.57;;
29576;SDS011;16509;53.862;10.672;2022-10-31T02:05:39;24.50;;;10.73;;
29576;SDS011;16509;53.862;10.672;2022-10-31T02:08:29;19.77;;;10.55;;
29576;SDS011;16509;53.862;10.672;2022-10-31T02:10:56;21.75;;;10.43;;
29576;SDS011;16509;53.862;10.672;2022-10-31T02:13:22;16.25;;;9.65;;
29576;SDS011;16509;53.862;10.672;2022-10-31T02:15:51;24.02;;;11.30;;
29576;SDS011;16509;53.862;10.672;2022-10-31T02:18:18;22.83;;;10.48;;
29576;SDS011;16509;53.862;10.672;2022-10-31T02:20:48;21.17;;;10.70;;
29576;SDS011;16509;53.862;10.672;2022-10-31T02:29:27;28.38;;;13.05;;
29576;SDS011;16509;53.862;10.672;2022-10-31T02:38:12;32.03;;;14.68;;
29576;SDS011;16509;53.862;10.672;2022-10-31T02:43:44;27.25;;;14.35;;
29576;SDS011;16509;53.862;10.672;2022-10-31T02:49:27;34.65;;;16.73;;
29576;SDS011;16509;53.862;10.672;2022-10-31T02:52:16;32.65;;;15.70;;
29576;SDS011;16509;53.862;10.672;2022-10-31T02:54:46;37.42;;;17.02;;
29576;SDS011;16509;53.862;10.672;2022-10-31T02:57:12;37.72;;;16.38;;
29576;SDS011;16509;53.862;10.672;2022-10-31T02:59:42;37.95;;;15.20;;
29576;SDS011;16509;53.862;10.672;2022-10-31T03:02:27;38.17;;;15.70;;
29576;SDS011;16509;53.862;10.672;2022-10-31T03:10:54;30.48;;;14.95;;
29576;SDS011;16509;53.862;10.672;2022-10-31T03:13:35;36.30;;;16.35;;
29576;SDS011;16509;53.862;10.672;2022-10-31T03:16:11;37.88;;;16.33;;
29576;SDS011;16509;53.862;10.672;2022-10-31T03:21:16;47.40;;;16.15;;
29576;SDS011;16509;53.862;10.672;2022-10-31T03:23:47;39.58;;;18.40;;
29576;SDS011;16509;53.862;10.672;2022-10-31T03:26:15;42.50;;;18.63;;
29576;SDS011;16509;53.862;10.672;2022-10-31T03:28:46;50.35;;;20.98;;
29576;SDS011;16509;53.862;10.672;2022-10-31T03:31:17;60.22;;;20.90;;
29576;SDS011;16509;53.862;10.672;2022-10-31T03:33:44;63.85;;;22.33;;
29576;SDS011;16509;53.862;10.672;2022-10-31T03:36:13;57.28;;;20.52;;
29576;SDS011;16509;53.862;10.672;2022-10-31T03:38:40;56.55;;;19.83;;
29576;SDS011;16509;53.862;10.672;2022-10-31T03:41:07;61.35;;;22.13;;
29576;SDS011;16509;53.862;10.672;2022-10-31T03:43:38;65.93;;;23.83;;
29576;SDS011;16509;53.862;10.672;2022-10-31T03:46:07;56.17;;;22.27;;
29576;SDS011;16509;53.862;10.672;2022-10-31T03:48:33;80.93;;;23.77;;
29576;SDS011;16509;53.862;10.672;2022-10-31T03:54:02;69.65;;;24.02;;
29576;SDS011;16509;53.862;10.672;2022-10-31T03:56:37;60.28;;;24.02;;
29576;SDS011;16509;53.862;10.672;2022-10-31T03:59:39;74.45;;;23.80;;
29576;SDS011;16509;53.862;10.672;2022-10-31T04:02:11;66.22;;;23.08;;
29576;SDS011;16509;53.862;10.672;2022-10-31T04:04:40;69.53;;;23.10;;
29576;SDS011;16509;53.862;10.672;2022-10-31T04:07:07;70.63;;;24.08;;
29576;SDS011;16509;53.862;10.672;2022-10-31T04:09:36;56.85;;;24.02;;
29576;SDS011;16509;53.862;10.672;2022-10-31T04:12:04;63.55;;;24.25;;
29576;SDS011;16509;53.862;10.672;2022-10-31T04:14:34;59.75;;;23.35;;
29576;SDS011;16509;53.862;10.672;2022-10-31T04:17:03;60.33;;;23.63;;
29576;SDS011;16509;53.862;10.672;2022-10-31T04:19:33;63.85;;;23.58;;
29576;SDS011;16509;53.862;10.672;2022-10-31T04:21:59;64.75;;;24.60;;
29576;SDS011;16509;53.862;10.672;2022-10-31T04:24:24;68.38;;;25.10;;
29576;SDS011;16509;53.862;10.672;2022-10-31T04:26:50;64.57;;;23.88;;
29576;SDS011;16509;53.862;10.672;2022-10-31T04:29:15;58.33;;;24.15;;
29576;SDS011;16509;53.862;10.672;2022-10-31T04:31:41;66.22;;;24.85;;
29576;SDS011;16509;53.862;10.672;2022-10-31T04:34:07;67.00;;;24.15;;
29576;SDS011;16509;53.862;10.672;2022-10-31T04:36:34;51.35;;;23.88;;
29576;SDS011;16509;53.862;10.672;2022-10-31T04:38:59;69.43;;;25.60;;
29576;SDS011;16509;53.862;10.672;2022-10-31T04:41:25;59.72;;;23.35;;
29576;SDS011;16509;53.862;10.672;2022-10-31T04:43:50;56.00;;;23.70;;
29576;SDS011;16509;53.862;10.672;2022-10-31T04:46:16;54.05;;;23.52;;
29576;SDS011;16509;53.862;10.672;2022-10-31T04:48:42;60.97;;;24.70;;
29576;SDS011;16509;53.862;10.672;2022-10-31T04:51:07;61.65;;;25.75;;
29576;SDS011;16509;53.862;10.672;2022-10-31T04:53:33;55.88;;;23.63;;
29576;SDS011;16509;53.862;10.672;2022-10-31T04:55:59;63.83;;;24.83;;
29576;SDS011;16509;53.862;10.672;2022-10-31T04:58:25;53.67;;;21.92;;
29576;SDS011;16509;53.862;10.672;2022-10-31T05:00:55;56.40;;;23.25;;
29576;SDS011;16509;53.862;10.672;2022-10-31T05:03:21;59.85;;;24.13;;
29576;SDS011;16509;53.862;10.672;2022-10-31T05:05:47;60.95;;;23.92;;
29576;SDS011;16509;53.862;10.672;2022-10-31T05:08:13;58.55;;;23.30;;
29576;SDS011;16509;53.862;10.672;2022-10-31T05:10:39;59.90;;;24.20;;
29576;SDS011;16509;53.862;10.672;2022-10-31T05:13:05;65.60;;;24.90;;
29576;SDS011;16509;53.862;10.672;2022-10-31T05:15:31;58.47;;;23.05;;
29576;SDS011;16509;53.862;10.672;2022-10-31T05:17:57;56.65;;;22.83;;
29576;SDS011;16509;53.862;10.672;2022-10-31T05:20:25;66.45;;;24.30;;
29576;SDS011;16509;53.862;10.672;2022-10-31T05:22:53;59.85;;;24.35;;
29576;SDS011;16509;53.862;10.672;2022-10-31T05:25:21;71.03;;;24.63;;
29576;SDS011;16509;53.862;10.672;2022-10-31T05:27:48;56.47;;;22.48;;
29576;SDS011;16509;53.862;10.672;2022-10-31T05:30:16;68.68;;;23.67;;
29576;SDS011;16509;53.862;10.672;2022-10-31T05:32:44;53.42;;;22.02;;
29576;SDS011;16509;53.862;10.672;2022-10-31T05:35:12;60.63;;;23.75;;
29576;SDS011;16509;53.862;10.672;2022-10-31T05:37:40;71.57;;;24.77;;
29576;SDS011;16509;53.862;10.672;2022-10-31T05:40:07;69.80;;;25.00;;
29576;SDS011;16509;53.862;10.672;2022-10-31T05:42:33;55.72;;;21.75;;
29576;SDS011;16509;53.862;10.672;2022-10-31T05:44:59;60.60;;;22.77;;
29576;SDS011;16509;53.862;10.672;2022-10-31T05:47:25;57.92;;;23.05;;
29576;SDS011;16509;53.862;10.672;2022-10-31T05:49:51;60.08;;;22.13;;
29576;SDS011;16509;53.862;10.672;2022-10-31T05:52:16;62.00;;;22.65;;
29576;SDS011;16509;53.862;10.672;2022-10-31T05:54:42;55.75;;;22.42;;
29576;SDS011;16509;53.862;10.672;2022-10-31T05:57:08;60.97;;;22.75;;
29576;SDS011;16509;53.862;10.672;2022-10-31T05:59:34;58.28;;;22.75;;
29576;SDS011;16509;53.862;10.672;2022-10-31T06:02:00;60.70;;;23.40;;
29576;SDS011;16509;53.862;10.672;2022-10-31T06:04:26;58.28;;;22.17;;
29576;SDS011;16509;53.862;10.672;2022-10-31T06:06:51;50.75;;;21.25;;
29576;SDS011;16509;53.862;10.672;2022-10-31T06:09:17;63.83;;;21.45;;
29576;SDS011;16509;53.862;10.672;2022-10-31T06:11:42;67.00;;;22.98;;
29576;SDS011;16509;53.862;10.672;2022-10-31T06:14:08;55.30;;;22.00;;
29576;SDS011;16509;53.862;10.672;2022-10-31T06:16:33;52.38;;;20.58;;
29576;SDS011;16509;53.862;10.672;2022-10-31T06:18:59;65.65;;;23.88;;
29576;SDS011;16509;53.862;10.672;2022-10-31T06:21:25;57.60;;;22.40;;
29576;SDS011;16509;53.862;10.672;2022-10-31T06:23:50;76.55;;;23.85;;
29576;SDS011;16509;53.862;10.672;2022-10-31T06:26:16;68.72;;;23.60;;
29576;SDS011;16509;53.862;10.672;2022-10-31T06:28:41;57.45;;;24.50;;
29576;SDS011;16509;53.862;10.672;2022-10-31T06:31:07;69.95;;;23.80;;
29576;SDS011;16509;53.862;10.672;2022-10-31T06:33:33;53.08;;;22.25;;
29576;SDS011;16509;53.862;10.672;2022-10-31T06:35:59;53.15;;;21.38;;
29576;SDS011;16509;53.862;10.672;2022-10-31T06:38:25;45.97;;;20.23;;
29576;SDS011;16509;53.862;10.672;2022-10-31T06:40:52;58.58;;;22.20;;
29576;SDS011;16509;53.862;10.672;2022-10-31T06:43:17;50.88;;;20.52;;
29576;SDS011;16509;53.862;10.672;2022-10-31T06:45:43;54.75;;;22.60;;
29576;SDS011;16509;53.862;10.672;2022-10-31T06:48:09;48.90;;;20.42;;
29576;SDS011;16509;53.862;10.672;2022-10-31T06:50:34;50.33;;;21.25;;
29576;SDS011;16509;53.862;10.672;2022-10-31T06:53:00;48.45;;;20.23;;
29576;SDS011;16509;53.862;10.672;2022-10-31T06:55:26;46.35;;;19.65;;
29576;SDS011;16509;53.862;10.672;2022-10-31T06:57:55;54.60;;;20.10;;
29576;SDS011;16509;53.862;10.672;2022-10-31T07:00:22;48.72;;;20.58;;
29576;SDS011;16509;53.862;10.672;2022-10-31T07:02:56;47.10;;;20.17;;
29576;SDS011;16509;53.862;10.672;2022-10-31T07:05:22;48.28;;;19.20;;
29576;SDS011;16509;53.862;10.672;2022-10-31T07:07:56;48.67;;;20.67;;
29576;SDS011;16509;53.862;10.672;2022-10-31T07:10:23;47.90;;;20.73;;
29576;SDS011;16509;53.862;10.672;2022-10-31T07:12:54;54.33;;;21.08;;
29576;SDS011;16509;53.862;10.672;2022-10-31T07:15:21;56.42;;;20.13;;
29576;SDS011;16509;53.862;10.672;2022-10-31T07:17:47;53.38;;;19.55;;
29576;SDS011;16509;53.862;10.672;2022-10-31T07:20:12;53.15;;;20.98;;
29576;SDS011;16509;53.862;10.672;2022-10-31T07:22:38;45.38;;;19.98;;
29576;SDS011;16509;53.862;10.672;2022-10-31T07:25:03;53.45;;;19.67;;
29576;SDS011;16509;53.862;10.672;2022-10-31T07:27:34;59.10;;;20.08;;
29576;SDS011;16509;53.862;10.672;2022-10-31T07:30:08;53.33;;;19.52;;
29576;SDS011;16509;53.862;10.672;2022-10-31T07:32:42;48.90;;;19.52;;
29576;SDS011;16509;53.862;10.672;2022-10-31T07:35:09;50.83;;;18.83;;
29576;SDS011;16509;53.862;10.672;2022-10-31T07:37:37;51.63;;;18.58;;
29576;SDS011;16509;53.862;10.672;2022-10-31T07:40:03;60.58;;;20.35;;
29576;SDS011;16509;53.862;10.672;2022-10-31T07:42:34;56.05;;;18.50;;
29576;SDS011;16509;53.862;10.672;2022-10-31T07:45:04;53.35;;;18.40;;
29576;SDS011;16509;53.862;10.672;2022-10-31T07:47:37;52.50;;;18.67;;
29576;SDS011;16509;53.862;10.672;2022-10-31T07:50:11;48.80;;;17.63;;
29576;SDS011;16509;53.862;10.672;2022-10-31T07:52:40;53.53;;;19.42;;
29576;SDS011;16509;53.862;10.672;2022-10-31T07:55:06;50.95;;;17.48;;
29576;SDS011;16509;53.862;10.672;2022-10-31T07:57:32;49.22;;;18.27;;
29576;SDS011;16509;53.862;10.672;2022-10-31T07:59:58;49.17;;;16.60;;
29576;SDS011;16509;53.862;10.672;2022-10-31T08:02:24;43.70;;;15.43;;
29576;SDS011;16509;53.862;10.672;2022-10-31T08:04:50;49.67;;;16.17;;
29576;SDS011;16509;53.862;10.672;2022-10-31T08:07:16;46.65;;;15.73;;
29576;SDS011;16509;53.862;10.672;2022-10-31T08:09:42;43.15;;;15.55;;
29576;SDS011;16509;53.862;10.672;2022-10-31T08:12:08;49.13;;;16.92;;
29576;SDS011;16509;53.862;10.672;2022-10-31T08:14:33;43.08;;;15.77;;
29576;SDS011;16509;53.862;10.672;2022-10-31T08:16:59;42.10;;;14.77;;
29576;SDS011;16509;53.862;10.672;2022-10-31T08:19:26;48.00;;;15.18;;
29576;SDS011;16509;53.862;10.672;2022-10-31T08:21:51;40.80;;;15.65;;
29576;SDS011;16509;53.862;10.672;2022-10-31T08:24:19;44.95;;;17.42;;
29576;SDS011;16509;53.862;10.672;2022-10-31T08:26:48;41.38;;;14.95;;
29576;SDS011;16509;53.862;10.672;2022-10-31T08:29:13;44.40;;;14.85;;
29576;SDS011;16509;53.862;10.672;2022-10-31T08:31:40;40.13;;;14.07;;
29576;SDS011;16509;53.862;10.672;2022-10-31T08:34:06;39.92;;;15.00;;
29576;SDS011;16509;53.862;10.672;2022-10-31T08:36:32;47.58;;;14.38;;
29576;SDS011;16509;53.862;10.672;2022-10-31T08:38:57;40.45;;;13.77;;
29576;SDS011;16509;53.862;10.672;2022-10-31T08:41:23;37.90;;;13.10;;
29576;SDS011;16509;53.862;10.672;2022-10-31T08:43:49;34.22;;;13.85;;
29576;SDS011;16509;53.862;10.672;2022-10-31T08:46:14;40.47;;;14.95;;
29576;SDS011;16509;53.862;10.672;2022-10-31T08:48:40;34.67;;;13.10;;
29576;SDS011;16509;53.862;10.672;2022-10-31T08:51:06;31.92;;;11.60;;
29576;SDS011;16509;53.862;10.672;2022-10-31T08:53:33;28.20;;;11.65;;
29576;SDS011;16509;53.862;10.672;2022-10-31T08:55:58;32.45;;;12.60;;
29576;SDS011;16509;53.862;10.672;2022-10-31T08:58:24;30.60;;;11.57;;
29576;SDS011;16509;53.862;10.672;2022-10-31T09:00:51;26.15;;;10.75;;
29576;SDS011;16509;53.862;10.672;2022-10-31T09:03:18;26.08;;;10.38;;
29576;SDS011;16509;53.862;10.672;2022-10-31T09:05:56;26.95;;;10.85;;
29576;SDS011;16509;53.862;10.672;2022-10-31T09:08:25;30.08;;;11.85;;
29576;SDS011;16509;53.862;10.672;2022-10-31T09:10:51;33.60;;;11.63;;
29576;SDS011;16509;53.862;10.672;2022-10-31T09:13:18;25.85;;;10.88;;
29576;SDS011;16509;53.862;10.672;2022-10-31T09:15:45;21.27;;;10.60;;
29576;SDS011;16509;53.862;10.672;2022-10-31T09:18:12;24.48;;;10.50;;
29576;SDS011;16509;53.862;10.672;2022-10-31T09:20:39;26.42;;;10.45;;
29576;SDS011;16509;53.862;10.672;2022-10-31T09:23:08;22.33;;;10.13;;
29576;SDS011;16509;53.862;10.672;2022-10-31T09:25:36;23.48;;;10.68;;
29576;SDS011;16509;53.862;10.672;2022-10-31T09:28:02;25.20;;;10.38;;
29576;SDS011;16509;53.862;10.672;2022-10-31T09:30:29;24.65;;;11.02;;
29576;SDS011;16509;53.862;10.672;2022-10-31T09:32:57;27.58;;;11.05;;
29576;SDS011;16509;53.862;10.672;2022-10-31T09:35:24;27.73;;;11.63;;
29576;SDS011;16509;53.862;10.672;2022-10-31T09:37:57;27.42;;;11.35;;
29576;SDS011;16509;53.862;10.672;2022-10-31T09:40:32;28.10;;;11.48;;
29576;SDS011;16509;53.862;10.672;2022-10-31T09:43:17;32.50;;;12.05;;
29576;SDS011;16509;53.862;10.672;2022-10-31T09:51:09;23.23;;;9.70;;
29576;SDS011;16509;53.862;10.672;2022-10-31T09:56:14;22.88;;;10.23;;
29576;SDS011;16509;53.862;10.672;2022-10-31T09:58:47;23.65;;;10.00;;
29576;SDS011;16509;53.862;10.672;2022-10-31T10:04:01;29.67;;;10.50;;
29576;SDS011;16509;53.862;10.672;2022-10-31T10:06:47;26.33;;;10.98;;
29576;SDS011;16509;53.862;10.672;2022-10-31T10:09:15;23.55;;;10.30;;
29576;SDS011;16509;53.862;10.672;2022-10-31T10:25:43;26.40;;;10.32;;
29576;SDS011;16509;53.862;10.672;2022-10-31T10:28:17;22.60;;;10.82;;
29576;SDS011;16509;53.862;10.672;2022-10-31T10:30:56;27.92;;;10.57;;
29576;SDS011;16509;53.862;10.672;2022-10-31T10:33:50;23.88;;;10.50;;
29576;SDS011;16509;53.862;10.672;2022-10-31T10:39:16;33.17;;;11.77;;
29576;SDS011;16509;53.862;10.672;2022-10-31T10:41:48;25.33;;;10.73;;
29576;SDS011;16509;53.862;10.672;2022-10-31T10:44:36;25.83;;;10.68;;
29576;SDS011;16509;53.862;10.672;2022-10-31T10:47:23;25.58;;;10.07;;
29576;SDS011;16509;53.862;10.672;2022-10-31T10:50:06;27.25;;;10.60;;
29576;SDS011;16509;53.862;10.672;2022-10-31T10:55:36;33.92;;;12.65;;
29576;SDS011;16509;53.862;10.672;2022-10-31T11:00:52;27.88;;;9.85;;
29576;SDS011;16509;53.862;10.672;2022-10-31T11:03:21;24.00;;;10.00;;
29576;SDS011;16509;53.862;10.672;2022-10-31T11:05:50;28.77;;;11.32;;
29576;SDS011;16509;53.862;10.672;2022-10-31T11:08:35;25.08;;;10.95;;
29576;SDS011;16509;53.862;10.672;2022-10-31T11:11:06;23.30;;;9.35;;
29576;SDS011;16509;53.862;10.672;2022-10-31T11:16:12;22.67;;;9.15;;
29576;SDS011;16509;53.862;10.672;2022-10-31T11:18:51;28.60;;;9.32;;
29576;SDS011;16509;53.862;10.672;2022-10-31T11:21:30;24.63;;;9.57;;
29576;SDS011;16509;53.862;10.672;2022-10-31T11:26:36;23.33;;;7.53;;
29576;SDS011;16509;53.862;10.672;2022-10-31T11:29:04;22.48;;;8.35;;
29576;SDS011;16509;53.862;10.672;2022-10-31T11:31:35;24.17;;;8.82;;
29576;SDS011;16509;53.862;10.672;2022-10-31T11:34:02;20.00;;;8.20;;
29576;SDS011;16509;53.862;10.672;2022-10-31T11:36:30;23.73;;;9.00;;
29576;SDS011;16509;53.862;10.672;2022-10-31T11:38:59;20.15;;;8.00;;
29576;SDS011;16509;53.862;10.672;2022-10-31T11:41:34;22.20;;;8.48;;
29576;SDS011;16509;53.862;10.672;2022-10-31T11:44:05;21.38;;;8.27;;
29576;SDS011;16509;53.862;10.672;2022-10-31T11:46:42;19.88;;;8.30;;
29576;SDS011;16509;53.862;10.672;2022-10-31T11:52:06;15.55;;;7.63;;
29576;SDS011;16509;53.862;10.672;2022-10-31T11:54:48;17.17;;;7.78;;
29576;SDS011;16509;53.862;10.672;2022-10-31T11:57:42;18.48;;;7.25;;
29576;SDS011;16509;53.862;10.672;2022-10-31T12:00:20;20.50;;;7.95;;
29576;SDS011;16509;53.862;10.672;2022-10-31T12:02:50;16.65;;;7.93;;
29576;SDS011;16509;53.862;10.672;2022-10-31T12:05:21;15.23;;;7.32;;
29576;SDS011;16509;53.862;10.672;2022-10-31T12:07:52;17.20;;;7.70;;
29576;SDS011;16509;53.862;10.672;2022-10-31T12:10:19;21.13;;;8.38;;
29576;SDS011;16509;53.862;10.672;2022-10-31T12:15:27;19.33;;;7.85;;
29576;SDS011;16509;53.862;10.672;2022-10-31T12:37:24;15.32;;;7.38;;
29576;SDS011;16509;53.862;10.672;2022-10-31T12:42:47;11.27;;;6.10;;
29576;SDS011;16509;53.862;10.672;2022-10-31T12:45:42;14.88;;;5.78;;
29576;SDS011;16509;53.862;10.672;2022-10-31T12:53:56;13.30;;;6.85;;
29576;SDS011;16509;53.862;10.672;2022-10-31T13:01:54;16.35;;;6.75;;
29576;SDS011;16509;53.862;10.672;2022-10-31T13:07:07;16.90;;;6.63;;
29576;SDS011;16509;53.862;10.672;2022-10-31T13:09:38;16.08;;;7.07;;
29576;SDS011;16509;53.862;10.672;2022-10-31T13:12:29;14.45;;;6.78;;
29576;SDS011;16509;53.862;10.672;2022-10-31T13:14:59;12.90;;;6.47;;
29576;SDS011;16509;53.862;10.672;2022-10-31T13:17:31;17.58;;;6.55;;
29576;SDS011;16509;53.862;10.672;2022-10-31T13:20:24;17.40;;;6.13;;
29576;SDS011;16509;53.862;10.672;2022-10-31T13:22:56;15.70;;;7.00;;
29576;SDS011;16509;53.862;10.672;2022-10-31T13:25:32;13.00;;;6.22;;
29576;SDS011;16509;53.862;10.672;2022-10-31T13:28:09;13.55;;;5.88;;
29576;SDS011;16509;53.862;10.672;2022-10-31T13:30:56;12.30;;;6.07;;
29576;SDS011;16509;53.862;10.672;2022-10-31T13:44:26;10.68;;;5.82;;
29576;SDS011;16509;53.862;10.672;2022-10-31T13:46:53;17.17;;;6.15;;
29576;SDS011;16509;53.862;10.672;2022-10-31T13:54:51;15.07;;;6.13;;
29576;SDS011;16509;53.862;10.672;2022-10-31T13:57:41;16.33;;;6.45;;
29576;SDS011;16509;53.862;10.672;2022-10-31T14:02:44;14.73;;;6.30;;
29576;SDS011;16509;53.862;10.672;2022-10-31T14:05:23;11.13;;;4.93;;
29576;SDS011;16509;53.862;10.672;2022-10-31T14:07:52;9.98;;;5.50;;
29576;SDS011;16509;53.862;10.672;2022-10-31T14:10:25;16.55;;;5.65;;
29576;SDS011;16509;53.862;10.672;2022-10-31T14:13:07;12.80;;;5.55;;
29576;SDS011;16509;53.862;10.672;2022-10-31T14:15:53;12.77;;;5.88;;
29576;SDS011;16509;53.862;10.672;2022-10-31T14:18:31;12.45;;;5.43;;
29576;SDS011;16509;53.862;10.672;2022-10-31T14:20:59;13.18;;;5.15;;
29576;SDS011;16509;53.862;10.672;2022-10-31T14:26:21;22.10;;;7.07;;
29576;SDS011;16509;53.862;10.672;2022-10-31T14:28:57;16.35;;;6.65;;
29576;SDS011;16509;53.862;10.672;2022-10-31T14:32:01;17.45;;;6.57;;
29576;SDS011;16509;53.862;10.672;2022-10-31T14:34:34;12.55;;;6.05;;
29576;SDS011;16509;53.862;10.672;2022-10-31T14:40:26;16.55;;;5.95;;
29576;SDS011;16509;53.862;10.672;2022-10-31T14:42:57;20.42;;;6.88;;
29576;SDS011;16509;53.862;10.672;2022-10-31T14:48:13;15.73;;;6.18;;
29576;SDS011;16509;53.862;10.672;2022-10-31T14:51:01;13.23;;;6.30;;
29576;SDS011;16509;53.862;10.672;2022-10-31T14:53:42;10.90;;;5.18;;
29576;SDS011;16509;53.862;10.672;2022-10-31T14:56:19;11.55;;;5.50;;
29576;SDS011;16509;53.862;10.672;2022-10-31T14:58:55;11.43;;;5.35;;
29576;SDS011;16509;53.862;10.672;2022-10-31T15:01:24;13.98;;;5.43;;
29576;SDS011;16509;53.862;10.672;2022-10-31T15:03:53;11.88;;;5.82;;
29576;SDS011;16509;53.862;10.672;2022-10-31T15:06:23;18.73;;;6.07;;
29576;SDS011;16509;53.862;10.672;2022-10-31T15:08:51;18.48;;;6.18;;
29576;SDS011;16509;53.862;10.672;2022-10-31T15:11:19;9.10;;;4.63;;
29576;SDS011;16509;53.862;10.672;2022-10-31T15:13:56;13.90;;;5.53;;
29576;SDS011;16509;53.862;10.672;2022-10-31T15:16:24;12.60;;;5.15;;
29576;SDS011;16509;53.862;10.672;2022-10-31T15:18:53;10.80;;;5.43;;
29576;SDS011;16509;53.862;10.672;2022-10-31T15:21:22;19.63;;;6.05;;
29576;SDS011;16509;53.862;10.672;2022-10-31T15:23:51;15.05;;;5.45;;
29576;SDS011;16509;53.862;10.672;2022-10-31T15:26:20;10.77;;;5.57;;
29576;SDS011;16509;53.862;10.672;2022-10-31T15:28:57;18.30;;;5.72;;
29576;SDS011;16509;53.862;10.672;2022-10-31T15:31:27;18.45;;;6.53;;
29576;SDS011;16509;53.862;10.672;2022-10-31T15:33:53;18.75;;;6.05;;
29576;SDS011;16509;53.862;10.672;2022-10-31T15:36:23;10.55;;;5.22;;
29576;SDS011;16509;53.862;10.672;2022-10-31T15:38:50;14.48;;;6.28;;
29576;SDS011;16509;53.862;10.672;2022-10-31T15:41:24;13.07;;;5.82;;
29576;SDS011;16509;53.862;10.672;2022-10-31T15:44:00;14.27;;;5.40;;
29576;SDS011;16509;53.862;10.672;2022-10-31T15:46:37;11.30;;;5.18;;
29576;SDS011;16509;53.862;10.672;2022-10-31T15:49:03;13.48;;;5.80;;
29576;SDS011;16509;53.862;10.672;2022-10-31T15:51:31;14.35;;;5.65;;
29576;SDS011;16509;53.862;10.672;2022-10-31T15:53:58;11.88;;;5.50;;
29576;SDS011;16509;53.862;10.672;2022-10-31T15:56:29;9.77;;;4.68;;
29576;SDS011;16509;53.862;10.672;2022-10-31T15:58:57;12.18;;;5.63;;
29576;SDS011;16509;53.862;10.672;2022-10-31T16:01:25;10.60;;;4.60;;
29576;SDS011;16509;53.862;10.672;2022-10-31T16:04:01;16.17;;;5.10;;
29576;SDS011;16509;53.862;10.672;2022-10-31T16:06:27;14.38;;;4.90;;
29576;SDS011;16509;53.862;10.672;2022-10-31T16:08:53;13.82;;;4.95;;
29576;SDS011;16509;53.862;10.672;2022-10-31T16:11:23;11.98;;;5.03;;
29576;SDS011;16509;53.862;10.672;2022-10-31T16:14:02;14.98;;;5.53;;
29576;SDS011;16509;53.862;10.672;2022-10-31T16:16:43;8.38;;;5.00;;
29576;SDS011;16509;53.862;10.672;2022-10-31T16:19:18;13.60;;;4.78;;
29576;SDS011;16509;53.862;10.672;2022-10-31T16:21:52;11.30;;;4.95;;
29576;SDS011;16509;53.862;10.672;2022-10-31T16:24:25;9.95;;;4.65;;
29576;SDS011;16509;53.862;10.672;2022-10-31T16:26:55;10.98;;;5.32;;
29576;SDS011;16509;53.862;10.672;2022-10-31T16:31:52;14.07;;;5.85;;
29576;SDS011;16509;53.862;10.672;2022-10-31T16:34:19;12.65;;;5.95;;
29576;SDS011;16509;53.862;10.672;2022-10-31T16:36:46;16.98;;;6.18;;
29576;SDS011;16509;53.862;10.672;2022-10-31T16:39:13;11.43;;;5.47;;
29576;SDS011;16509;53.862;10.672;2022-10-31T16:41:42;8.60;;;4.95;;
29576;SDS011;16509;53.862;10.672;2022-10-31T16:44:22;9.15;;;4.93;;
29576;SDS011;16509;53.862;10.672;2022-10-31T16:47:07;13.52;;;5.75;;
29576;SDS011;16509;53.862;10.672;2022-10-31T16:49:34;13.07;;;6.00;;
29576;SDS011;16509;53.862;10.672;2022-10-31T16:52:01;12.55;;;5.85;;
29576;SDS011;16509;53.862;10.672;2022-10-31T16:54:28;13.73;;;5.78;;